Time;durP1;ratioP1;P1;durP2;ratioP2;P2;SDS_P1;SDS_P2;PMS_P1;PMS_P2;Temp;Humidity;BMP_temperature;BMP_pressure;BME280_temperature;BME280_humidity;BME280_pressure;Samples;Min_cycle;Max_cycle;Signal;HPM_P1;HPM_P2
2021/08/22 00:01:42;;;;;;;12.87;9.10;;;19.30;99.90;;;;;;5058245;28;20505;-49
2021/08/22 00:04:09;;;;;;;4.97;4.07;;;19.30;99.90;;;;;;5057468;28;20489;-49
2021/08/22 00:06:37;;;;;;;9.03;7.03;;;19.20;99.90;;;;;;5058016;28;20451;-49
2021/08/22 00:09:03;;;;;;;4.43;3.77;;;19.20;99.90;;;;;;5058146;28;20443;-48
2021/08/22 00:11:30;;;;;;;4.50;4.10;;;19.20;99.90;;;;;;5057690;28;21029;-47
2021/08/22 00:13:57;;;;;;;3.77;3.40;;;19.10;99.90;;;;;;5058398;28;20569;-44
2021/08/22 00:16:23;;;;;;;3.77;3.10;;;19.10;99.90;;;;;;5057808;28;20904;-48
2021/08/22 00:18:50;;;;;;;4.10;3.10;;;19.10;99.90;;;;;;5057750;28;20998;-47
2021/08/22 00:21:17;;;;;;;3.67;3.10;;;19.00;99.90;;;;;;5057317;28;20509;-49
2021/08/22 00:23:45;;;;;;;4.10;3.53;;;19.00;99.90;;;;;;5057547;28;20451;-46
2021/08/22 00:26:11;;;;;;;4.40;3.83;;;18.90;99.90;;;;;;5057589;28;20513;-50
2021/08/22 00:28:38;;;;;;;4.17;3.10;;;18.90;99.90;;;;;;5057493;28;20451;-48
2021/08/22 00:31:06;;;;;;;9.37;4.57;;;18.90;99.90;;;;;;5057561;28;20790;-52
2021/08/22 00:33:32;;;;;;;4.57;3.30;;;18.90;99.90;;;;;;5057647;28;20463;-49
2021/08/22 00:35:59;;;;;;;3.80;3.00;;;18.80;99.90;;;;;;5057077;28;20448;-51
2021/08/22 00:38:26;;;;;;;3.40;2.80;;;18.80;99.90;;;;;;5056602;28;20447;-49
2021/08/22 00:40:54;;;;;;;5.10;4.13;;;18.80;99.90;;;;;;5057314;28;20443;-49
2021/08/22 00:43:20;;;;;;;3.90;3.13;;;18.80;99.90;;;;;;5057340;28;20462;-50
2021/08/22 00:45:48;;;;;;;3.90;3.40;;;18.80;99.90;;;;;;5057012;28;20788;-45
2021/08/22 00:48:14;;;;;;;3.93;3.50;;;18.80;99.90;;;;;;5057270;28;20938;-51
2021/08/22 00:50:41;;;;;;;4.03;3.20;;;18.80;99.90;;;;;;5057147;28;20459;-51
2021/08/22 00:53:08;;;;;;;4.47;2.77;;;18.80;99.90;;;;;;5057139;28;20447;-51
2021/08/22 00:55:35;;;;;;;6.37;3.03;;;18.80;99.90;;;;;;5057345;28;20766;-46
2021/08/22 00:58:03;;;;;;;3.43;3.13;;;18.80;99.90;;;;;;5057047;28;20488;-48
2021/08/22 01:00:30;;;;;;;4.37;3.33;;;18.80;99.90;;;;;;5056912;28;20459;-50
2021/08/22 01:03:10;;;;;;;6.03;3.10;;;18.80;99.90;;;;;;5056687;28;20443;-48
2021/08/22 01:05:44;;;;;;;4.20;3.60;;;18.70;99.90;;;;;;5057103;28;21034;-47
2021/08/22 01:08:19;;;;;;;3.77;3.37;;;18.80;99.90;;;;;;5058244;28;20740;-50
2021/08/22 01:10:46;;;;;;;5.77;3.70;;;18.80;99.90;;;;;;5057199;28;20471;-48
2021/08/22 01:13:20;;;;;;;3.97;3.53;;;18.80;99.90;;;;;;5056832;28;20451;-49
2021/08/22 01:15:53;;;;;;;10.07;3.50;;;18.80;99.90;;;;;;5057178;28;20501;-49
2021/08/22 01:18:22;;;;;;;3.50;3.07;;;18.80;99.90;;;;;;5057141;28;20447;-50
2021/08/22 01:20:55;;;;;;;6.23;3.80;;;18.70;99.90;;;;;;5056692;28;20459;-47
2021/08/22 01:23:23;;;;;;;5.23;4.10;;;18.70;99.90;;;;;;5056793;28;20443;-49
2021/08/22 01:25:51;;;;;;;3.70;3.20;;;18.60;99.90;;;;;;5056910;28;20869;-49
2021/08/22 01:28:19;;;;;;;5.00;3.37;;;18.60;99.90;;;;;;5056283;28;20936;-46
2021/08/22 01:30:49;;;;;;;5.87;3.90;;;18.60;99.90;;;;;;5056434;28;20447;-49
2021/08/22 01:33:19;;;;;;;3.50;2.67;;;18.60;99.90;;;;;;5056395;28;20451;-49
2021/08/22 01:35:47;;;;;;;4.97;3.30;;;18.60;99.90;;;;;;5056750;28;20439;-50
2021/08/22 01:38:15;;;;;;;5.40;4.03;;;18.50;99.90;;;;;;5056928;28;20821;-48
2021/08/22 01:40:43;;;;;;;12.53;7.43;;;18.50;99.90;;;;;;5057147;28;20509;-45
2021/08/22 01:43:12;;;;;;;7.23;4.23;;;18.50;99.90;;;;;;5056648;28;20553;-50
2021/08/22 01:45:39;;;;;;;4.23;3.40;;;18.50;99.90;;;;;;5056249;28;20524;-49
2021/08/22 01:48:07;;;;;;;3.33;3.00;;;18.50;99.90;;;;;;5056084;28;20447;-48
2021/08/22 01:50:35;;;;;;;12.37;8.50;;;18.40;99.90;;;;;;5056477;28;20970;-46
2021/08/22 01:53:05;;;;;;;4.60;3.80;;;18.40;99.90;;;;;;5056279;28;20936;-50
2021/08/22 01:55:33;;;;;;;5.90;3.80;;;18.40;99.90;;;;;;5056267;28;20449;-50
2021/08/22 01:57:59;;;;;;;10.40;7.57;;;18.40;99.90;;;;;;5056378;28;20453;-51
2021/08/22 02:00:26;;;;;;;16.33;9.03;;;18.40;99.90;;;;;;5055867;28;20843;-45
2021/08/22 02:02:59;;;;;;;3.53;3.00;;;18.40;99.90;;;;;;5056164;28;20473;-46
2021/08/22 02:05:27;;;;;;;4.30;3.40;;;18.30;99.90;;;;;;5055858;28;20467;-49
2021/08/22 02:07:55;;;;;;;4.40;4.00;;;18.30;99.90;;;;;;5055694;28;20443;-49
2021/08/22 02:10:27;;;;;;;6.10;3.80;;;18.30;99.90;;;;;;5055731;28;20513;-47
2021/08/22 02:13:00;;;;;;;6.27;3.50;;;18.30;99.90;;;;;;5055791;28;20446;-49
2021/08/22 02:15:32;;;;;;;4.17;3.77;;;18.30;99.90;;;;;;5055697;28;20447;-49
2021/08/22 02:18:03;;;;;;;4.80;3.47;;;18.30;99.90;;;;;;5056000;28;20469;-46
2021/08/22 02:20:30;;;;;;;3.57;2.90;;;18.30;99.90;;;;;;5056731;28;20447;-46
2021/08/22 02:22:58;;;;;;;4.20;3.00;;;18.30;99.90;;;;;;5056547;28;20509;-45
2021/08/22 02:25:28;;;;;;;4.73;3.90;;;18.30;99.90;;;;;;5056202;28;20542;-46
2021/08/22 02:27:56;;;;;;;6.40;3.53;;;18.30;99.90;;;;;;5056651;28;20490;-49
2021/08/22 02:30:22;;;;;;;4.60;3.43;;;18.30;99.90;;;;;;5056730;28;20766;-46
2021/08/22 02:32:49;;;;;;;5.93;3.50;;;18.30;99.90;;;;;;5057042;28;20452;-46
2021/08/22 02:35:16;;;;;;;5.33;3.70;;;18.30;99.90;;;;;;5057865;28;20443;-45
2021/08/22 02:37:42;;;;;;;3.73;3.43;;;18.30;99.90;;;;;;5056513;28;20448;-48
2021/08/22 02:40:11;;;;;;;3.30;3.00;;;18.30;99.90;;;;;;5056020;28;20501;-51
2021/08/22 02:42:38;;;;;;;3.63;2.83;;;18.30;99.90;;;;;;5055717;28;20470;-53
2021/08/22 02:45:06;;;;;;;3.23;2.80;;;18.30;99.90;;;;;;5055538;28;20491;-50
2021/08/22 02:47:33;;;;;;;3.87;3.43;;;18.30;99.90;;;;;;5055949;28;20505;-46
2021/08/22 02:50:00;;;;;;;5.53;3.40;;;18.30;99.90;;;;;;5055440;28;20493;-47
2021/08/22 02:52:26;;;;;;;3.70;3.00;;;18.30;99.90;;;;;;5055795;28;20451;-52
2021/08/22 02:54:53;;;;;;;6.13;3.77;;;18.30;99.90;;;;;;5055370;28;20500;-52
2021/08/22 02:57:21;;;;;;;4.40;3.73;;;18.30;99.90;;;;;;5055674;28;20819;-51
2021/08/22 02:59:48;;;;;;;3.50;2.90;;;18.30;99.90;;;;;;5055694;28;20513;-51
2021/08/22 03:02:14;;;;;;;2.90;2.60;;;18.30;99.90;;;;;;5059098;28;20443;-53
2021/08/22 03:04:41;;;;;;;5.23;3.40;;;18.30;99.90;;;;;;5059487;28;20446;-50
2021/08/22 03:07:08;;;;;;;9.13;5.30;;;18.30;99.90;;;;;;5059530;28;20459;-49
2021/08/22 03:09:34;;;;;;;3.70;3.17;;;18.30;99.90;;;;;;5059586;28;20509;-49
2021/08/22 03:12:01;;;;;;;3.87;3.00;;;18.30;99.90;;;;;;5059051;28;20866;-52
2021/08/22 03:14:29;;;;;;;5.93;3.97;;;18.40;99.90;;;;;;5059420;28;20443;-51
2021/08/22 03:16:56;;;;;;;3.63;3.10;;;18.40;99.90;;;;;;5059176;28;20516;-51
2021/08/22 03:19:23;;;;;;;4.23;3.30;;;18.40;99.90;;;;;;5059176;28;20446;-49
2021/08/22 03:21:49;;;;;;;4.50;3.10;;;18.30;99.90;;;;;;5059138;28;20454;-50
2021/08/22 03:24:16;;;;;;;4.43;3.20;;;18.30;99.90;;;;;;5059038;28;20435;-51
2021/08/22 03:26:42;;;;;;;4.93;3.30;;;18.30;99.90;;;;;;5059111;28;20478;-48
2021/08/22 03:29:09;;;;;;;3.33;3.03;;;18.30;99.90;;;;;;5058618;28;20466;-50
2021/08/22 03:31:37;;;;;;;3.87;3.33;;;18.20;99.90;;;;;;5058679;28;20920;-50
2021/08/22 03:34:04;;;;;;;5.07;3.90;;;18.20;99.90;;;;;;5059084;28;20443;-52
2021/08/22 03:36:31;;;;;;;4.10;2.97;;;18.20;99.90;;;;;;5058613;28;20447;-53
2021/08/22 03:38:57;;;;;;;4.10;3.70;;;18.20;99.90;;;;;;5060331;28;20482;-44
2021/08/22 03:41:24;;;;;;;4.23;3.07;;;18.10;99.90;;;;;;5059402;28;20587;-41
2021/08/22 03:43:51;;;;;;;5.20;3.47;;;18.10;99.90;;;;;;5059750;28;20439;-42
2021/08/22 03:46:17;;;;;;;3.73;2.83;;;18.10;99.90;;;;;;5060139;28;20490;-44
2021/08/22 03:48:45;;;;;;;4.37;3.33;;;18.00;99.90;;;;;;5051646;28;20533;-43
2021/08/22 03:51:12;;;;;;;3.90;3.50;;;18.00;99.90;;;;;;5060147;28;20491;-43
2021/08/22 03:53:39;;;;;;;4.10;2.97;;;18.00;99.90;;;;;;5059445;28;20497;-41
2021/08/22 03:56:06;;;;;;;3.87;3.20;;;18.00;99.90;;;;;;5059692;28;20452;-40
2021/08/22 03:58:32;;;;;;;5.40;3.30;;;18.00;99.90;;;;;;5059993;28;20451;-43
2021/08/22 04:01:00;;;;;;;3.60;3.10;;;18.00;99.90;;;;;;5059798;28;20435;-44
2021/08/22 04:03:27;;;;;;;3.67;3.10;;;18.00;99.90;;;;;;5059822;28;20856;-40
2021/08/22 04:05:55;;;;;;;4.50;4.00;;;18.00;99.90;;;;;;5060274;28;20475;-44
2021/08/22 04:08:25;;;;;;;7.40;3.70;;;17.90;99.90;;;;;;5059878;28;20440;-40
2021/08/22 04:10:51;;;;;;;3.20;2.70;;;18.00;99.90;;;;;;5059475;28;20479;-43
2021/08/22 04:13:19;;;;;;;3.70;2.90;;;18.00;99.90;;;;;;5057983;28;20470;-41
2021/08/22 04:15:46;;;;;;;3.80;3.10;;;18.00;99.90;;;;;;5058809;28;20447;-44
2021/08/22 04:18:13;;;;;;;5.17;3.40;;;18.00;99.90;;;;;;5059344;28;20534;-41
2021/08/22 04:20:41;;;;;;;5.17;4.10;;;18.00;99.90;;;;;;5059389;28;20471;-44
2021/08/22 04:23:09;;;;;;;5.30;3.67;;;18.00;99.90;;;;;;5059025;28;20440;-44
2021/08/22 04:25:36;;;;;;;5.47;3.40;;;17.90;99.90;;;;;;5059014;28;20483;-42
2021/08/22 04:28:03;;;;;;;4.53;3.70;;;17.90;99.90;;;;;;5059507;28;20452;-43
2021/08/22 04:30:29;;;;;;;4.20;3.80;;;18.00;99.90;;;;;;5059166;28;20915;-45
2021/08/22 04:32:56;;;;;;;5.60;4.13;;;18.00;99.90;;;;;;5059586;28;20446;-43
2021/08/22 04:35:23;;;;;;;4.47;3.27;;;18.00;99.90;;;;;;5059053;28;20439;-44
2021/08/22 04:37:49;;;;;;;6.70;3.37;;;18.00;99.90;;;;;;5059165;28;20961;-46
2021/08/22 04:40:17;;;;;;;7.53;2.77;;;18.00;99.90;;;;;;5059485;28;20477;-44
2021/08/22 04:42:44;;;;;;;3.50;2.93;;;18.00;99.90;;;;;;5050723;28;20505;-43
2021/08/22 04:45:11;;;;;;;3.47;3.17;;;18.00;99.90;;;;;;5058703;28;20447;-42
2021/08/22 04:47:38;;;;;;;4.20;2.97;;;18.00;99.90;;;;;;5058798;28;20811;-46
2021/08/22 04:50:05;;;;;;;4.27;3.80;;;18.00;99.90;;;;;;5058741;28;20447;-42
2021/08/22 04:52:32;;;;;;;5.27;3.40;;;18.00;99.90;;;;;;5059203;28;20509;-42
2021/08/22 04:55:02;;;;;;;7.33;3.47;;;18.00;99.90;;;;;;5058801;28;20494;-42
2021/08/22 04:57:30;;;;;;;6.50;3.30;;;18.00;99.90;;;;;;5059102;28;20829;-44
2021/08/22 04:59:57;;;;;;;4.07;3.43;;;18.00;99.90;;;;;;5058459;28;20451;-43
2021/08/22 05:02:23;;;;;;;4.60;3.80;;;18.00;99.90;;;;;;5058831;28;20451;-41
2021/08/22 05:04:50;;;;;;;5.53;3.33;;;18.10;99.90;;;;;;5059048;28;20500;-42
2021/08/22 05:07:17;;;;;;;3.30;3.00;;;18.10;99.90;;;;;;5058437;28;20551;-42
2021/08/22 05:09:43;;;;;;;7.53;3.83;;;18.10;99.90;;;;;;5059166;28;20825;-42
2021/08/22 05:12:10;;;;;;;3.40;2.77;;;18.10;99.90;;;;;;5058610;28;20479;-42
2021/08/22 05:14:38;;;;;;;3.40;3.10;;;18.10;99.90;;;;;;5058937;28;20481;-42
2021/08/22 05:17:05;;;;;;;4.60;2.90;;;18.10;99.90;;;;;;5058473;28;20447;-43
2021/08/22 05:19:31;;;;;;;3.70;3.03;;;18.10;99.90;;;;;;5058391;28;20455;-46
2021/08/22 05:21:58;;;;;;;4.47;2.90;;;18.10;99.90;;;;;;5058405;28;20505;-43
2021/08/22 05:24:25;;;;;;;4.97;3.13;;;18.20;99.90;;;;;;5058640;28;20455;-42
2021/08/22 05:26:52;;;;;;;4.40;3.60;;;18.20;99.90;;;;;;5058460;28;20985;-45
2021/08/22 05:29:18;;;;;;;4.17;2.57;;;18.20;99.90;;;;;;5058380;28;20439;-42
2021/08/22 05:31:46;;;;;;;6.87;3.40;;;18.30;99.90;;;;;;5058644;28;20491;-43
2021/08/22 05:34:13;;;;;;;4.90;3.53;;;18.30;99.90;;;;;;5059435;28;20938;-44
2021/08/22 05:36:40;;;;;;;5.03;2.57;;;18.30;99.90;;;;;;5058223;28;20444;-46
2021/08/22 05:39:08;;;;;;;3.10;2.60;;;18.40;99.90;;;;;;5058259;28;20458;-42
2021/08/22 05:41:34;;;;;;;3.77;3.17;;;18.40;99.90;;;;;;5057207;28;20452;-43
2021/08/22 05:44:01;;;;;;;4.40;3.60;;;18.50;99.90;;;;;;5057026;28;20858;-42
2021/08/22 05:46:28;;;;;;;4.20;2.53;;;18.70;99.90;;;;;;5057722;28;20509;-43
2021/08/22 05:48:56;;;;;;;6.70;2.70;;;18.80;99.90;;;;;;5057726;28;20443;-42
2021/08/22 05:51:23;;;;;;;4.20;2.83;;;18.90;99.90;;;;;;5058288;28;20451;-42
2021/08/22 05:53:51;;;;;;;4.63;3.13;;;19.00;99.90;;;;;;5057180;28;20509;-39
2021/08/22 05:56:18;;;;;;;3.00;2.50;;;19.00;99.90;;;;;;5057436;28;20505;-41
2021/08/22 05:58:45;;;;;;;4.07;2.80;;;19.10;99.90;;;;;;5057360;28;20490;-41
2021/08/22 06:01:12;;;;;;;3.23;2.77;;;19.20;99.90;;;;;;5057103;28;20443;-42
2021/08/22 06:03:38;;;;;;;4.10;2.50;;;19.20;99.90;;;;;;5057464;28;20540;-42
2021/08/22 06:06:08;;;;;;;5.43;2.50;;;19.20;99.90;;;;;;5057669;28;20478;-42
2021/08/22 06:08:35;;;;;;;3.20;2.47;;;19.20;99.90;;;;;;5058147;28;20505;-43
2021/08/22 06:11:02;;;;;;;3.00;2.40;;;19.20;99.90;;;;;;5057519;28;20847;-42
2021/08/22 06:13:29;;;;;;;3.70;2.10;;;19.30;99.90;;;;;;5057454;28;20508;-50
2021/08/22 06:15:55;;;;;;;3.70;3.00;;;19.40;99.90;;;;;;5057184;28;20447;-45
2021/08/22 06:18:22;;;;;;;5.20;2.80;;;19.40;99.90;;;;;;5057134;28;20455;-43
2021/08/22 06:20:49;;;;;;;3.70;2.70;;;19.50;99.90;;;;;;5057869;28;20451;-44
2021/08/22 06:23:17;;;;;;;3.40;2.60;;;19.50;99.90;;;;;;5057090;28;20966;-44
2021/08/22 06:25:44;;;;;;;4.47;2.87;;;19.60;99.90;;;;;;5056689;28;20442;-42
2021/08/22 06:28:12;;;;;;;4.03;2.80;;;19.70;99.90;;;;;;5056857;28;20447;-42
2021/08/22 06:30:39;;;;;;;5.33;2.00;;;19.80;99.90;;;;;;5056757;28;20489;-41
2021/08/22 06:33:06;;;;;;;3.30;2.00;;;19.90;99.90;;;;;;5056947;28;20846;-42
2021/08/22 06:35:33;;;;;;;2.97;2.60;;;19.90;99.90;;;;;;5056682;28;20966;-44
2021/08/22 06:37:59;;;;;;;3.00;2.70;;;19.90;99.90;;;;;;5061588;28;20509;-41
2021/08/22 06:40:27;;;;;;;5.47;3.00;;;20.00;99.90;;;;;;5061595;28;20451;-44
2021/08/22 06:42:54;;;;;;;4.80;2.73;;;20.00;99.90;;;;;;5061155;28;20529;-41
2021/08/22 06:45:21;;;;;;;5.50;2.83;;;20.00;99.90;;;;;;5061917;28;20836;-42
2021/08/22 06:47:52;;;;;;;4.27;3.37;;;20.00;99.90;;;;;;5061433;28;20482;-43
2021/08/22 06:50:20;;;;;;;3.30;2.50;;;20.10;99.90;;;;;;5061099;28;20476;-41
2021/08/22 06:52:46;;;;;;;4.00;2.60;;;20.10;99.90;;;;;;5061240;28;20447;-43
2021/08/22 06:55:13;;;;;;;3.10;2.77;;;20.20;99.90;;;;;;5061068;28;20481;-41
2021/08/22 06:57:41;;;;;;;2.70;2.50;;;20.30;99.90;;;;;;5061128;28;20439;-42
2021/08/22 07:00:09;;;;;;;4.23;3.30;;;20.40;99.90;;;;;;5061046;28;20517;-41
2021/08/22 07:02:35;;;;;;;4.30;3.20;;;20.50;99.90;;;;;;5060221;28;20455;-45
2021/08/22 07:05:02;;;;;;;4.70;2.50;;;20.60;99.90;;;;;;5060274;28;20450;-41
2021/08/22 07:07:29;;;;;;;4.00;2.80;;;20.60;99.90;;;;;;5060297;28;20478;-44
2021/08/22 07:09:55;;;;;;;4.03;2.90;;;20.70;99.90;;;;;;5060277;28;20523;-42
2021/08/22 07:12:22;;;;;;;2.77;2.57;;;20.80;99.90;;;;;;5059147;28;20528;-41
2021/08/22 07:14:50;;;;;;;3.60;2.50;;;20.80;99.90;;;;;;5059714;28;20512;-43
2021/08/22 07:17:20;;;;;;;6.70;2.77;;;20.90;99.90;;;;;;5059801;28;20463;-41
2021/08/22 07:19:47;;;;;;;3.57;2.83;;;21.10;99.90;;;;;;5060127;28;20457;-45
2021/08/22 07:22:14;;;;;;;4.30;2.90;;;21.20;99.90;;;;;;5059861;28;20447;-43
2021/08/22 07:24:41;;;;;;;5.03;2.93;;;21.30;99.90;;;;;;5059961;28;20477;-42
2021/08/22 07:27:07;;;;;;;4.20;2.70;;;21.30;99.90;;;;;;5059934;28;20516;-45
2021/08/22 07:29:35;;;;;;;4.93;3.10;;;21.30;99.90;;;;;;5059635;28;20443;-47
2021/08/22 07:32:03;;;;;;;3.63;2.63;;;21.40;99.90;;;;;;5061056;28;20463;-41
2021/08/22 07:34:30;;;;;;;2.90;2.30;;;21.40;99.90;;;;;;5059399;28;20520;-50
2021/08/22 07:36:56;;;;;;;3.80;3.40;;;21.50;99.90;;;;;;5060079;28;20439;-42
2021/08/22 07:39:23;;;;;;;3.87;3.00;;;21.70;99.90;;;;;;5059892;28;20435;-44
2021/08/22 07:41:50;;;;;;;2.83;2.30;;;21.80;99.90;;;;;;5059455;28;20549;-44
2021/08/22 07:44:16;;;;;;;2.10;1.80;;;21.80;99.90;;;;;;5059471;28;20489;-44
2021/08/22 07:46:43;;;;;;;3.37;2.70;;;22.00;99.90;;;;;;5050956;28;20490;-44
2021/08/22 07:49:11;;;;;;;3.93;3.17;;;21.90;99.90;;;;;;5059002;28;20743;-42
2021/08/22 07:51:38;;;;;;;2.70;2.10;;;21.80;99.90;;;;;;5058913;28;20459;-41
2021/08/22 07:54:04;;;;;;;3.23;2.93;;;21.80;99.90;;;;;;5059077;28;20474;-44
2021/08/22 07:56:31;;;;;;;4.53;3.30;;;21.90;99.90;;;;;;5059358;28;20506;-42
2021/08/22 07:58:58;;;;;;;3.00;2.70;;;21.80;99.90;;;;;;5058914;28;20517;-42
2021/08/22 08:01:24;;;;;;;3.23;2.93;;;21.90;99.90;;;;;;5059816;28;20455;-43
2021/08/22 08:03:51;;;;;;;3.53;2.90;;;21.90;99.90;;;;;;5059225;28;20819;-41
2021/08/22 08:06:21;;;;;;;4.40;2.77;;;21.80;99.90;;;;;;5059520;28;20510;-45
2021/08/22 08:08:48;;;;;;;4.10;3.23;;;21.80;99.90;;;;;;5051487;28;20758;-40
2021/08/22 08:11:15;;;;;;;3.33;3.00;;;21.70;99.90;;;;;;5058697;28;20534;-41
2021/08/22 08:13:42;;;;;;;3.53;2.60;;;21.90;99.90;;;;;;5058845;28;20927;-41
2021/08/22 08:16:09;;;;;;;3.10;2.80;;;22.00;99.90;;;;;;5058840;28;20466;-44
2021/08/22 08:18:36;;;;;;;5.77;3.27;;;22.30;99.90;;;;;;5058888;28;20459;-44
2021/08/22 08:21:03;;;;;;;3.67;3.07;;;22.70;99.90;;;;;;5058621;28;20542;-41
2021/08/22 08:23:31;;;;;;;6.23;3.60;;;23.00;99.90;;;;;;5058315;28;20454;-42
2021/08/22 08:25:58;;;;;;;5.03;3.37;;;23.20;99.90;;;;;;5058622;28;20459;-41
2021/08/22 08:28:24;;;;;;;3.90;2.60;;;23.50;99.90;;;;;;5058115;28;20487;-46
2021/08/22 08:30:51;;;;;;;5.40;4.03;;;23.60;99.90;;;;;;5058841;28;20451;-42
2021/08/22 08:33:18;;;;;;;7.90;4.50;;;23.80;99.90;;;;;;5058197;28;20513;-42
2021/08/22 08:35:44;;;;;;;5.10;4.60;;;24.10;99.90;;;;;;5049984;28;20516;-43
2021/08/22 08:38:11;;;;;;;6.80;4.00;;;24.20;99.90;;;;;;5058386;28;20547;-41
2021/08/22 08:40:40;;;;;;;9.23;6.80;;;24.20;99.90;;;;;;5058549;28;20758;-41
2021/08/22 08:43:07;;;;;;;4.00;3.50;;;24.30;99.90;;;;;;5058096;28;20455;-41
2021/08/22 08:45:41;;;;;;;5.07;4.10;;;24.40;99.90;;;;;;5057711;28;20512;-43
2021/08/22 08:48:07;;;;;;;5.40;3.90;;;24.50;99.90;;;;;;5057597;28;20479;-41
2021/08/22 08:50:36;;;;;;;4.57;3.90;;;24.60;99.90;;;;;;5057783;28;20451;-42
2021/08/22 08:53:04;;;;;;;6.60;3.83;;;24.60;99.90;;;;;;5058087;28;20482;-42
2021/08/22 08:55:32;;;;;;;9.23;3.47;;;24.60;99.90;;;;;;5057828;28;20459;-42
2021/08/22 08:58:00;;;;;;;4.70;3.50;;;24.40;99.90;;;;;;5057016;28;20823;-49
2021/08/22 09:00:27;;;;;;;4.37;3.50;;;24.20;99.90;;;;;;5065281;28;20488;-42
2021/08/22 09:02:55;;;;;;;4.90;4.40;;;24.10;99.90;;;;;;5079657;28;20447;-43
2021/08/22 09:05:43;;;;;;;4.67;3.60;;;24.10;99.90;;;;;;5079544;28;20463;-48
2021/08/22 09:08:48;;;;;;;3.80;3.50;;;24.60;99.90;;;;;;5079134;28;20536;-44
2021/08/22 09:11:57;;;;;;;4.87;3.57;;;25.00;99.90;;;;;;5079160;28;20479;-47
2021/08/22 09:15:08;;;;;;;4.03;3.63;;;25.20;99.90;;;;;;5078675;28;20442;-49
2021/08/22 09:18:14;;;;;;;3.60;3.20;;;25.20;99.90;;;;;;5079124;28;20427;-47
2021/08/22 09:21:33;;;;;;;5.00;4.50;;;25.40;99.90;;;;;;5078986;28;20459;-43
2021/08/22 09:24:37;;;;;;;4.10;3.80;;;25.90;99.90;;;;;;5079286;28;20418;-44
2021/08/22 09:27:44;;;;;;;5.40;4.10;;;25.80;99.90;;;;;;5078849;28;20509;-44
2021/08/22 09:30:44;;;;;;;5.27;3.60;;;25.60;99.90;;;;;;5055630;28;20446;-48
2021/08/22 09:33:58;;;;;;;3.77;3.47;;;25.80;99.90;;;;;;5045362;28;20443;-46
2021/08/22 09:37:14;;;;;;;4.03;3.63;;;27.40;98.20;;;;;;5038153;28;20458;-50
2021/08/22 09:40:18;;;;;;;5.23;3.70;;;28.50;95.00;;;;;;5077642;28;20419;-45
2021/08/22 09:43:23;;;;;;;3.90;3.50;;;28.80;91.90;;;;;;5077918;28;20439;-45
2021/08/22 09:46:26;;;;;;;4.70;3.97;;;28.30;91.20;;;;;;5077590;28;20443;-47
2021/08/22 09:49:30;;;;;;;8.87;4.30;;;27.80;91.40;;;;;;5037917;28;20439;-47
2021/08/22 09:52:39;;;;;;;5.33;3.70;;;27.50;91.80;;;;;;5077476;28;20462;-43
2021/08/22 09:55:48;;;;;;;4.10;3.70;;;27.00;92.40;;;;;;5077918;28;20435;-48
2021/08/22 09:58:55;;;;;;;5.57;3.97;;;26.40;93.50;;;;;;5077912;28;20458;-46
2021/08/22 10:02:10;;;;;;;6.40;4.10;;;26.00;94.30;;;;;;5077693;28;20443;-46
2021/08/22 10:05:27;;;;;;;3.77;3.47;;;25.50;95.20;;;;;;5078044;28;20415;-47
2021/08/22 10:08:01;;;;;;;5.07;4.47;;;25.10;96.20;;;;;;4991246;28;20470;-48
2021/08/22 10:10:30;;;;;;;5.77;4.47;;;24.80;97.00;;;;;;5073968;28;20484;-44
2021/08/22 10:12:59;;;;;;;4.13;3.73;;;24.60;97.70;;;;;;5077632;28;20404;-50
2021/08/22 10:15:26;;;;;;;5.30;4.20;;;24.50;98.50;;;;;;5077875;28;20443;-45
2021/08/22 10:17:53;;;;;;;5.50;4.27;;;24.40;98.90;;;;;;5077332;28;20458;-45
2021/08/22 10:20:20;;;;;;;4.97;4.50;;;24.30;99.50;;;;;;5076976;28;20446;-47
2021/08/22 10:22:48;;;;;;;8.20;4.67;;;24.30;99.70;;;;;;5077267;28;20443;-42
2021/08/22 10:25:20;;;;;;;4.77;3.83;;;24.10;99.90;;;;;;5077986;28;20439;-45
2021/08/22 10:27:55;;;;;;;4.67;4.20;;;24.10;99.90;;;;;;5076827;28;20459;-51
2021/08/22 10:30:23;;;;;;;6.03;4.27;;;23.90;99.90;;;;;;5076778;28;20441;-49
2021/08/22 10:33:15;;;;;;;6.33;3.97;;;23.80;99.90;;;;;;5076834;28;20407;-44
2021/08/22 10:35:42;;;;;;;6.10;4.20;;;23.70;99.90;;;;;;5076481;28;20485;-49
2021/08/22 10:38:29;;;;;;;10.33;6.90;;;23.60;99.90;;;;;;5076636;28;20427;-47
2021/08/22 10:40:58;;;;;;;6.90;6.00;;;23.60;99.90;;;;;;5076746;28;20455;-45
2021/08/22 10:43:45;;;;;;;8.40;5.40;;;23.70;99.90;;;;;;5076678;28;20415;-48
2021/08/22 10:46:16;;;;;;;5.87;5.13;;;23.60;99.90;;;;;;5076180;28;20474;-44
2021/08/22 10:48:55;;;;;;;4.67;4.00;;;23.60;99.90;;;;;;5076781;28;20482;-45
2021/08/22 10:51:32;;;;;;;6.23;5.63;;;23.60;99.90;;;;;;5077220;28;20443;-43
2021/08/22 10:54:20;;;;;;;4.57;3.80;;;23.50;99.90;;;;;;5077907;28;20445;-43
2021/08/22 10:56:51;;;;;;;7.57;3.83;;;23.40;99.90;;;;;;5077803;28;20432;-44
2021/08/22 10:59:18;;;;;;;7.80;5.57;;;23.40;99.90;;;;;;5077857;28;20426;-47
2021/08/22 11:01:45;;;;;;;5.60;4.57;;;23.30;99.90;;;;;;5077463;28;20447;-45
2021/08/22 11:04:13;;;;;;;6.70;5.57;;;23.20;99.90;;;;;;5077167;28;20463;-46
2021/08/22 11:06:57;;;;;;;8.00;5.73;;;23.20;99.90;;;;;;5077572;28;20454;-46
2021/08/22 11:09:40;;;;;;;9.20;6.10;;;23.00;99.90;;;;;;5076689;28;20432;-43
2021/08/22 11:12:23;;;;;;;9.03;6.67;;;22.90;99.90;;;;;;5077145;28;20455;-44
2021/08/22 11:14:50;;;;;;;7.40;6.60;;;22.80;99.90;;;;;;5077322;28;20478;-45
2021/08/22 11:17:19;;;;;;;6.90;5.70;;;22.70;99.90;;;;;;5077683;28;20451;-41
2021/08/22 11:19:45;;;;;;;11.87;6.77;;;22.60;99.90;;;;;;5077767;28;20427;-46
2021/08/22 11:22:27;;;;;;;8.20;5.40;;;22.50;99.90;;;;;;5079405;28;20443;-43
2021/08/22 11:24:55;;;;;;;9.73;5.77;;;22.30;99.90;;;;;;5081387;28;20420;-42
2021/08/22 11:27:28;;;;;;;8.33;6.83;;;22.10;99.90;;;;;;5080420;28;20489;-49
2021/08/22 11:30:06;;;;;;;9.40;6.13;;;21.90;99.90;;;;;;5080124;28;20500;-43
2021/08/22 11:32:50;;;;;;;9.80;7.50;;;21.80;99.90;;;;;;5079486;28;20860;-50
2021/08/22 11:35:23;;;;;;;9.60;6.87;;;21.70;99.90;;;;;;5079600;28;20456;-49
2021/08/22 11:37:56;;;;;;;8.60;7.37;;;21.50;99.90;;;;;;5079776;28;20446;-47
2021/08/22 11:40:26;;;;;;;11.70;8.23;;;21.40;99.90;;;;;;5079991;28;20475;-51
2021/08/22 11:42:56;;;;;;;11.53;7.50;;;21.30;99.90;;;;;;5080032;28;20436;-52
2021/08/22 11:45:37;;;;;;;8.70;7.60;;;21.20;99.90;;;;;;5080025;28;20443;-52
2021/08/22 11:48:05;;;;;;;12.90;9.10;;;21.20;99.90;;;;;;5079932;28;20478;-50
2021/08/22 11:50:34;;;;;;;15.23;8.20;;;21.10;99.90;;;;;;5079736;28;20458;-48
2021/08/22 11:53:02;;;;;;;131.57;85.60;;;21.00;99.90;;;;;;5079334;28;20427;-50
2021/08/22 11:55:32;;;;;;;19.83;14.17;;;21.00;99.90;;;;;;5080082;28;20447;-53
2021/08/22 11:58:11;;;;;;;18.20;15.87;;;21.10;99.90;;;;;;5079606;28;20421;-50
2021/08/22 12:00:39;;;;;;;12.77;9.60;;;21.10;99.90;;;;;;5080077;28;20431;-50
2021/08/22 12:03:06;;;;;;;9.23;7.80;;;21.20;99.90;;;;;;5079069;28;20439;-52
2021/08/22 12:05:33;;;;;;;14.30;9.97;;;21.20;99.90;;;;;;5079432;28;20469;-52
2021/08/22 12:08:06;;;;;;;10.77;9.27;;;21.30;99.90;;;;;;5078774;28;20475;-52
2021/08/22 12:10:34;;;;;;;9.60;7.70;;;21.40;99.90;;;;;;5079124;28;20475;-53
2021/08/22 12:13:02;;;;;;;11.10;9.43;;;21.50;99.90;;;;;;5079179;28;20453;-52
2021/08/22 12:15:36;;;;;;;10.80;9.10;;;21.50;99.90;;;;;;5078798;28;20443;-53
2021/08/22 12:18:20;;;;;;;8.57;7.70;;;21.50;99.90;;;;;;5079258;28;20431;-54
2021/08/22 12:20:49;;;;;;;9.03;7.50;;;21.40;99.90;;;;;;5079182;28;20446;-51
2021/08/22 12:23:17;;;;;;;11.30;9.23;;;21.30;99.90;;;;;;5078892;28;20435;-50
2021/08/22 12:25:45;;;;;;;8.30;7.50;;;21.30;99.90;;;;;;5078892;28;20450;-53
2021/08/22 12:28:22;;;;;;;16.57;9.47;;;21.20;99.90;;;;;;5079404;28;20466;-50
2021/08/22 12:31:03;;;;;;;9.30;8.40;;;21.00;99.90;;;;;;5079115;28;20454;-51
2021/08/22 12:33:32;;;;;;;14.80;11.57;;;20.90;99.90;;;;;;5078160;28;20447;-52
2021/08/22 12:36:11;;;;;;;23.50;19.10;;;20.80;99.90;;;;;;5079116;28;20404;-53
2021/08/22 12:38:41;;;;;;;26.17;18.80;;;20.70;99.90;;;;;;5078941;28;20416;-52
2021/08/22 12:41:33;;;;;;;19.20;15.23;;;20.60;99.90;;;;;;5079203;28;20426;-52
2021/08/22 12:44:01;;;;;;;14.80;9.13;;;20.60;99.90;;;;;;5078277;28;20463;-51
2021/08/22 12:46:31;;;;;;;15.90;10.93;;;20.50;99.90;;;;;;5078039;28;20440;-53
2021/08/22 12:48:58;;;;;;;19.57;12.40;;;20.50;99.90;;;;;;5078335;28;20455;-51
2021/08/22 12:51:26;;;;;;;17.23;12.73;;;20.40;99.90;;;;;;5078094;28;20447;-49
2021/08/22 12:53:55;;;;;;;13.27;11.03;;;20.40;99.90;;;;;;5077976;28;20431;-49
2021/08/22 12:56:22;;;;;;;15.60;13.27;;;20.30;99.90;;;;;;5078054;28;20423;-53
2021/08/22 12:58:50;;;;;;;16.80;14.30;;;20.30;99.90;;;;;;5078448;28;20508;-52
2021/08/22 13:01:16;;;;;;;14.97;13.37;;;20.20;99.90;;;;;;5077756;28;20443;-51
2021/08/22 13:03:44;;;;;;;15.87;13.63;;;20.20;99.90;;;;;;5077890;28;20435;-52
2021/08/22 13:06:11;;;;;;;22.37;15.00;;;20.20;99.90;;;;;;5077225;28;20481;-50